<?xml version="1.0" encoding="UTF-8" standalone="no" ?>
<gpx xmlns="http://www.topografix.com/GPX/1/1" xmlns:xsi="http://www.w3.org/2001/XMLSchema-instance" xsi:schemaLocation="http://www.topografix.com/GPX/1/1 http://www.topografix.com/GPX/1/1/gpx.xsd" version="1.1" creator="VisuGPX - https://www.visugpx.com">
  <metadata>
    <name>Edirne-Sarajevo</name>
  </metadata>
  <trk>
    <name><![CDATA[Tour d'Europe: étape 713]]></name>
    <extensions>
      <line xmlns="http://www.topografix.com/GPX/gpx_style/0/2">
        <color>FF0000</color>
        <width>4</width>
      </line>
    </extensions>
    <trkseg>
      <trkpt lat="42.64141" lon="18.10949">
        <ele>52.612819</ele>
        <time>2022-06-10T07:51:07.575Z</time>
      </trkpt>
      <trkpt lat="42.64101" lon="18.11025">
        <ele>54.107061</ele>
        <time>2022-06-10T07:57:26.713Z</time>
      </trkpt>
      <trkpt lat="42.64198" lon="18.11222">
        <ele>58.507837</ele>
        <time>2022-06-10T08:00:09.694Z</time>
      </trkpt>
      <trkpt lat="42.64249" lon="18.11279">
        <ele>51.819346</ele>
        <time>2022-06-10T08:17:05.685Z</time>
      </trkpt>
      <trkpt lat="42.64333" lon="18.1124">
        <ele>60.954674</ele>
        <time>2022-06-10T08:18:01.707Z</time>
      </trkpt>
      <trkpt lat="42.64286" lon="18.11688">
        <ele>85.105678</ele>
        <time>2022-06-10T08:18:40.696Z</time>
      </trkpt>
      <trkpt lat="42.63305" lon="18.1594">
        <ele>176.366174</ele>
        <time>2022-06-10T08:23:58.699Z</time>
      </trkpt>
      <trkpt lat="42.6426" lon="18.16228">
        <ele>251.936858</ele>
        <time>2022-06-10T08:25:54.705Z</time>
      </trkpt>
      <trkpt lat="42.64363" lon="18.15871">
        <ele>272.646905</ele>
        <time>2022-06-10T08:26:14.828Z</time>
      </trkpt>
      <trkpt lat="42.64665" lon="18.15927">
        <ele>310.635297</ele>
        <time>2022-06-10T08:45:28.715Z</time>
      </trkpt>
      <trkpt lat="42.64862" lon="18.15926">
        <ele>317.668116</ele>
        <time>2022-06-10T08:47:04.693Z</time>
      </trkpt>
      <trkpt lat="42.65071" lon="18.15934">
        <ele>327.000242</ele>
        <time>2022-06-10T08:48:51.699Z</time>
      </trkpt>
      <trkpt lat="42.65292" lon="18.15919">
        <ele>332.431239</ele>
        <time>2022-06-10T08:53:21.701Z</time>
      </trkpt>
      <trkpt lat="42.65494" lon="18.15913">
        <ele>343.413972</ele>
        <time>2022-06-10T08:55:34.698Z</time>
      </trkpt>
      <trkpt lat="42.6564" lon="18.16075">
        <ele>352.147372</ele>
        <time>2022-06-10T08:57:45.710Z</time>
      </trkpt>
      <trkpt lat="42.65707" lon="18.16298">
        <ele>368.898147</ele>
        <time>2022-06-10T08:59:58.706Z</time>
      </trkpt>
      <trkpt lat="42.65915" lon="18.16309">
        <ele>384.181969</ele>
        <time>2022-06-10T09:10:12.710Z</time>
      </trkpt>
      <trkpt lat="42.65934" lon="18.1659">
        <ele>394.643475</ele>
        <time>2022-06-10T09:12:53.742Z</time>
      </trkpt>
      <trkpt lat="42.65933" lon="18.1687">
        <ele>399.553544</ele>
        <time>2022-06-10T09:14:11.708Z</time>
      </trkpt>
      <trkpt lat="42.65902" lon="18.17126">
        <ele>401.179767</ele>
        <time>2022-06-10T09:15:12.710Z</time>
      </trkpt>
      <trkpt lat="42.65782" lon="18.17352">
        <ele>405.021941</ele>
        <time>2022-06-10T09:16:28.717Z</time>
      </trkpt>
      <trkpt lat="42.65871" lon="18.17549">
        <ele>413.477897</ele>
        <time>2022-06-10T09:17:48.700Z</time>
      </trkpt>
      <trkpt lat="42.66077" lon="18.17613">
        <ele>414.399125</ele>
        <time>2022-06-10T09:19:12.714Z</time>
      </trkpt>
      <trkpt lat="42.66173" lon="18.1784">
        <ele>418.640808</ele>
        <time>2022-06-10T09:20:32.714Z</time>
      </trkpt>
      <trkpt lat="42.66049" lon="18.17953">
        <ele>427.164461</ele>
        <time>2022-06-10T09:22:11.713Z</time>
      </trkpt>
      <trkpt lat="42.66156" lon="18.17735">
        <ele>424.442822</ele>
        <time>2022-06-10T09:31:48.729Z</time>
      </trkpt>
      <trkpt lat="42.6589" lon="18.17549">
        <ele>407.041187</ele>
        <time>2022-06-10T09:32:28.691Z</time>
      </trkpt>
      <trkpt lat="42.65835" lon="18.17209">
        <ele>399.759634</ele>
        <time>2022-06-10T09:33:10.707Z</time>
      </trkpt>
      <trkpt lat="42.65936" lon="18.16911">
        <ele>396.094368</ele>
        <time>2022-06-10T09:33:50.710Z</time>
      </trkpt>
      <trkpt lat="42.65943" lon="18.16597">
        <ele>392.073054</ele>
        <time>2022-06-10T09:34:41.688Z</time>
      </trkpt>
      <trkpt lat="42.65961" lon="18.16363">
        <ele>391.172853</ele>
        <time>2022-06-10T09:36:52.698Z</time>
      </trkpt>
      <trkpt lat="42.66164" lon="18.16499">
        <ele>386.635756</ele>
        <time>2022-06-10T09:38:49.679Z</time>
      </trkpt>
      <trkpt lat="42.66372" lon="18.16505">
        <ele>376.392141</ele>
        <time>2022-06-10T09:39:31.705Z</time>
      </trkpt>
      <trkpt lat="42.6658" lon="18.1654">
        <ele>372.955281</ele>
        <time>2022-06-10T09:40:29.720Z</time>
      </trkpt>
      <trkpt lat="42.66775" lon="18.16417">
        <ele>376.566267</ele>
        <time>2022-06-10T09:41:41.717Z</time>
      </trkpt>
      <trkpt lat="42.6694" lon="18.16287">
        <ele>380.01606</ele>
        <time>2022-06-10T09:42:47.699Z</time>
      </trkpt>
      <trkpt lat="42.67124" lon="18.1625">
        <ele>389.838335</ele>
        <time>2022-06-10T09:44:31.704Z</time>
      </trkpt>
      <trkpt lat="42.67258" lon="18.16086">
        <ele>399.81428</ele>
        <time>2022-06-10T09:46:40.709Z</time>
      </trkpt>
      <trkpt lat="42.67397" lon="18.1582">
        <ele>393.93383</ele>
        <time>2022-06-10T09:47:30.700Z</time>
      </trkpt>
      <trkpt lat="42.67551" lon="18.15595">
        <ele>391.733977</ele>
        <time>2022-06-10T09:48:23.711Z</time>
      </trkpt>
      <trkpt lat="42.67721" lon="18.15333">
        <ele>395.375895</ele>
        <time>2022-06-10T09:49:26.709Z</time>
      </trkpt>
      <trkpt lat="42.67888" lon="18.15101">
        <ele>393.249517</ele>
        <time>2022-06-10T09:50:26.695Z</time>
      </trkpt>
      <trkpt lat="42.68112" lon="18.15146">
        <ele>394.249853</ele>
        <time>2022-06-10T09:51:27.733Z</time>
      </trkpt>
      <trkpt lat="42.68314" lon="18.15031">
        <ele>391.225996</ele>
        <time>2022-06-10T09:52:21.704Z</time>
      </trkpt>
      <trkpt lat="42.68347" lon="18.14762">
        <ele>389.205357</ele>
        <time>2022-06-10T09:53:01.699Z</time>
      </trkpt>
      <trkpt lat="42.68509" lon="18.14537">
        <ele>386.004164</ele>
        <time>2022-06-10T09:56:51.682Z</time>
      </trkpt>
      <trkpt lat="42.68706" lon="18.14553">
        <ele>381.10263</ele>
        <time>2022-06-10T09:57:35.691Z</time>
      </trkpt>
      <trkpt lat="42.68904" lon="18.14536">
        <ele>378.479645</ele>
        <time>2022-06-10T09:58:21.700Z</time>
      </trkpt>
      <trkpt lat="42.69075" lon="18.14627">
        <ele>374.058947</ele>
        <time>2022-06-10T09:59:05.732Z</time>
      </trkpt>
      <trkpt lat="42.69116" lon="18.14907">
        <ele>370.776276</ele>
        <time>2022-06-10T09:59:48.704Z</time>
      </trkpt>
      <trkpt lat="42.69272" lon="18.14818">
        <ele>363.938989</ele>
        <time>2022-06-10T10:00:30.707Z</time>
      </trkpt>
      <trkpt lat="42.69505" lon="18.14679">
        <ele>350.222344</ele>
        <time>2022-06-10T10:01:10.713Z</time>
      </trkpt>
      <trkpt lat="42.69642" lon="18.14933">
        <ele>343.639475</ele>
        <time>2022-06-10T10:01:55.727Z</time>
      </trkpt>
      <trkpt lat="42.69764" lon="18.15174">
        <ele>335.224865</ele>
        <time>2022-06-10T10:02:40.730Z</time>
      </trkpt>
      <trkpt lat="42.69977" lon="18.15278">
        <ele>333.798356</ele>
        <time>2022-06-10T10:03:43.704Z</time>
      </trkpt>
      <trkpt lat="42.70125" lon="18.15467">
        <ele>333.211015</ele>
        <time>2022-06-10T10:04:34.760Z</time>
      </trkpt>
      <trkpt lat="42.70263" lon="18.15672">
        <ele>330.941241</ele>
        <time>2022-06-10T10:05:16.709Z</time>
      </trkpt>
      <trkpt lat="42.70286" lon="18.1595">
        <ele>329.530293</ele>
        <time>2022-06-10T10:06:01.724Z</time>
      </trkpt>
      <trkpt lat="42.70274" lon="18.16239">
        <ele>328.821559</ele>
        <time>2022-06-10T10:06:43.723Z</time>
      </trkpt>
      <trkpt lat="42.70356" lon="18.16498">
        <ele>326.600429</ele>
        <time>2022-06-10T10:07:28.708Z</time>
      </trkpt>
      <trkpt lat="42.70503" lon="18.16766">
        <ele>325.252401</ele>
        <time>2022-06-10T10:08:24.710Z</time>
      </trkpt>
      <trkpt lat="42.70659" lon="18.17022">
        <ele>323.667491</ele>
        <time>2022-06-10T10:09:21.710Z</time>
      </trkpt>
      <trkpt lat="42.70819" lon="18.17284">
        <ele>323.621345</ele>
        <time>2022-06-10T10:10:21.711Z</time>
      </trkpt>
      <trkpt lat="42.70947" lon="18.17537">
        <ele>322.031099</ele>
        <time>2022-06-10T10:11:11.736Z</time>
      </trkpt>
      <trkpt lat="42.7108" lon="18.17783">
        <ele>317.806991</ele>
        <time>2022-06-10T10:12:01.704Z</time>
      </trkpt>
      <trkpt lat="42.71237" lon="18.18006">
        <ele>317.471853</ele>
        <time>2022-06-10T10:12:51.714Z</time>
      </trkpt>
      <trkpt lat="42.71401" lon="18.18243">
        <ele>316.512101</ele>
        <time>2022-06-10T10:13:46.714Z</time>
      </trkpt>
      <trkpt lat="42.71604" lon="18.18436">
        <ele>316.336435</ele>
        <time>2022-06-10T10:14:49.715Z</time>
      </trkpt>
      <trkpt lat="42.71789" lon="18.18651">
        <ele>316.203507</ele>
        <time>2022-06-10T10:15:48.702Z</time>
      </trkpt>
      <trkpt lat="42.71943" lon="18.18915">
        <ele>316.876096</ele>
        <time>2022-06-10T10:16:48.703Z</time>
      </trkpt>
      <trkpt lat="42.72136" lon="18.19134">
        <ele>313.633944</ele>
        <time>2022-06-10T10:17:49.704Z</time>
      </trkpt>
      <trkpt lat="42.72342" lon="18.19293">
        <ele>313.269744</ele>
        <time>2022-06-10T10:18:49.717Z</time>
      </trkpt>
      <trkpt lat="42.72529" lon="18.19439">
        <ele>311.607111</ele>
        <time>2022-06-10T10:19:52.718Z</time>
      </trkpt>
      <trkpt lat="42.72715" lon="18.19529">
        <ele>314.684653</ele>
        <time>2022-06-10T10:20:53.716Z</time>
      </trkpt>
      <trkpt lat="42.72907" lon="18.19472">
        <ele>319.456134</ele>
        <time>2022-06-10T10:22:07.696Z</time>
      </trkpt>
      <trkpt lat="42.73109" lon="18.19493">
        <ele>318.460565</ele>
        <time>2022-06-10T10:26:50.714Z</time>
      </trkpt>
      <trkpt lat="42.73064" lon="18.19273">
        <ele>319.848597</ele>
        <time>2022-06-10T10:28:02.701Z</time>
      </trkpt>
      <trkpt lat="42.73286" lon="18.19161">
        <ele>316.162396</ele>
        <time>2022-06-10T10:29:02.708Z</time>
      </trkpt>
      <trkpt lat="42.73516" lon="18.1904">
        <ele>314.615001</ele>
        <time>2022-06-10T10:30:00.704Z</time>
      </trkpt>
      <trkpt lat="42.73765" lon="18.18909">
        <ele>311.726727</ele>
        <time>2022-06-10T10:31:03.722Z</time>
      </trkpt>
      <trkpt lat="42.73976" lon="18.18734">
        <ele>311.267563</ele>
        <time>2022-06-10T10:32:03.702Z</time>
      </trkpt>
      <trkpt lat="42.74179" lon="18.18536">
        <ele>312.465794</ele>
        <time>2022-06-10T10:33:03.743Z</time>
      </trkpt>
      <trkpt lat="42.74374" lon="18.18346">
        <ele>316.338456</ele>
        <time>2022-06-10T10:34:02.705Z</time>
      </trkpt>
      <trkpt lat="42.74576" lon="18.18146">
        <ele>318.056676</ele>
        <time>2022-06-10T10:35:05.695Z</time>
      </trkpt>
      <trkpt lat="42.74772" lon="18.17954">
        <ele>316.001618</ele>
        <time>2022-06-10T10:36:05.705Z</time>
      </trkpt>
      <trkpt lat="42.74985" lon="18.17743">
        <ele>313.085281</ele>
        <time>2022-06-10T10:37:08.710Z</time>
      </trkpt>
      <trkpt lat="42.75185" lon="18.17548">
        <ele>309.835851</ele>
        <time>2022-06-10T10:38:06.717Z</time>
      </trkpt>
      <trkpt lat="42.75395" lon="18.17342">
        <ele>312.249636</ele>
        <time>2022-06-10T10:39:08.701Z</time>
      </trkpt>
      <trkpt lat="42.75599" lon="18.17145">
        <ele>313.412498</ele>
        <time>2022-06-10T10:40:08.707Z</time>
      </trkpt>
      <trkpt lat="42.75809" lon="18.16982">
        <ele>316.346191</ele>
        <time>2022-06-10T10:41:08.725Z</time>
      </trkpt>
      <trkpt lat="42.75936" lon="18.1671">
        <ele>316.3702</ele>
        <time>2022-06-10T10:42:11.737Z</time>
      </trkpt>
      <trkpt lat="42.75981" lon="18.16374">
        <ele>312.775666</ele>
        <time>2022-06-10T10:43:11.759Z</time>
      </trkpt>
      <trkpt lat="42.76012" lon="18.16014">
        <ele>309.787467</ele>
        <time>2022-06-10T10:44:14.730Z</time>
      </trkpt>
      <trkpt lat="42.75977" lon="18.1571">
        <ele>310.765454</ele>
        <time>2022-06-10T10:45:14.713Z</time>
      </trkpt>
      <trkpt lat="42.75974" lon="18.15373">
        <ele>312.160783</ele>
        <time>2022-06-10T10:46:12.702Z</time>
      </trkpt>
      <trkpt lat="42.7599" lon="18.15042">
        <ele>311.665293</ele>
        <time>2022-06-10T10:47:10.706Z</time>
      </trkpt>
      <trkpt lat="42.75858" lon="18.14772">
        <ele>317.080412</ele>
        <time>2022-06-10T10:48:08.715Z</time>
      </trkpt>
      <trkpt lat="42.75886" lon="18.14466">
        <ele>311.499447</ele>
        <time>2022-06-10T10:49:05.705Z</time>
      </trkpt>
      <trkpt lat="42.76005" lon="18.14172">
        <ele>304.235052</ele>
        <time>2022-06-10T10:53:40.704Z</time>
      </trkpt>
      <trkpt lat="42.76124" lon="18.13892">
        <ele>308.233283</ele>
        <time>2022-06-10T10:54:40.719Z</time>
      </trkpt>
      <trkpt lat="42.763" lon="18.13681">
        <ele>318.545592</ele>
        <time>2022-06-10T10:55:38.740Z</time>
      </trkpt>
      <trkpt lat="42.76301" lon="18.1333">
        <ele>312.173037</ele>
        <time>2022-06-10T10:56:40.706Z</time>
      </trkpt>
      <trkpt lat="42.76418" lon="18.13055">
        <ele>307.606825</ele>
        <time>2022-06-10T10:57:37.749Z</time>
      </trkpt>
      <trkpt lat="42.76615" lon="18.12827">
        <ele>311.325163</ele>
        <time>2022-06-10T10:58:40.711Z</time>
      </trkpt>
      <trkpt lat="42.76765" lon="18.12573">
        <ele>308.961155</ele>
        <time>2022-06-10T10:59:37.716Z</time>
      </trkpt>
      <trkpt lat="42.76856" lon="18.12258">
        <ele>307.135059</ele>
        <time>2022-06-10T11:00:39.725Z</time>
      </trkpt>
      <trkpt lat="42.77003" lon="18.11994">
        <ele>309.713804</ele>
        <time>2022-06-10T11:01:38.712Z</time>
      </trkpt>
      <trkpt lat="42.77167" lon="18.11773">
        <ele>306.736086</ele>
        <time>2022-06-10T11:02:34.713Z</time>
      </trkpt>
      <trkpt lat="42.7741" lon="18.1172">
        <ele>303.97435</ele>
        <time>2022-06-10T11:03:37.694Z</time>
      </trkpt>
      <trkpt lat="42.77606" lon="18.11525">
        <ele>303.511336</ele>
        <time>2022-06-10T11:04:38.709Z</time>
      </trkpt>
      <trkpt lat="42.77635" lon="18.11186">
        <ele>310.224249</ele>
        <time>2022-06-10T11:05:41.710Z</time>
      </trkpt>
      <trkpt lat="42.7771" lon="18.10895">
        <ele>305.717309</ele>
        <time>2022-06-10T11:06:41.714Z</time>
      </trkpt>
      <trkpt lat="42.77847" lon="18.10634">
        <ele>308.104218</ele>
        <time>2022-06-10T11:07:44.721Z</time>
      </trkpt>
      <trkpt lat="42.77754" lon="18.10344">
        <ele>313.733997</ele>
        <time>2022-06-10T11:08:42.708Z</time>
      </trkpt>
      <trkpt lat="42.77858" lon="18.10023">
        <ele>309.436619</ele>
        <time>2022-06-10T11:09:44.701Z</time>
      </trkpt>
      <trkpt lat="42.7791" lon="18.09695">
        <ele>308.411621</ele>
        <time>2022-06-10T11:10:40.741Z</time>
      </trkpt>
      <trkpt lat="42.7802" lon="18.09416">
        <ele>303.158254</ele>
        <time>2022-06-10T11:11:38.727Z</time>
      </trkpt>
      <trkpt lat="42.7826" lon="18.09349">
        <ele>299.374428</ele>
        <time>2022-06-10T11:12:37.715Z</time>
      </trkpt>
      <trkpt lat="42.78441" lon="18.09129">
        <ele>301.458326</ele>
        <time>2022-06-10T11:13:37.720Z</time>
      </trkpt>
      <trkpt lat="42.78694" lon="18.09094">
        <ele>298.870183</ele>
        <time>2022-06-10T11:14:39.721Z</time>
      </trkpt>
      <trkpt lat="42.78863" lon="18.08925">
        <ele>302.669919</ele>
        <time>2022-06-10T11:15:39.724Z</time>
      </trkpt>
      <trkpt lat="42.78914" lon="18.08605">
        <ele>306.570849</ele>
        <time>2022-06-10T11:16:42.710Z</time>
      </trkpt>
      <trkpt lat="42.79105" lon="18.08465">
        <ele>302.124029</ele>
        <time>2022-06-10T11:17:42.719Z</time>
      </trkpt>
      <trkpt lat="42.7931" lon="18.08466">
        <ele>305.694867</ele>
        <time>2022-06-10T11:18:45.726Z</time>
      </trkpt>
      <trkpt lat="42.79488" lon="18.08323">
        <ele>308.680528</ele>
        <time>2022-06-10T11:19:47.703Z</time>
      </trkpt>
      <trkpt lat="42.79595" lon="18.08104">
        <ele>314.39365</ele>
        <time>2022-06-10T11:20:47.736Z</time>
      </trkpt>
      <trkpt lat="42.79706" lon="18.07846">
        <ele>309.809512</ele>
        <time>2022-06-10T11:21:50.720Z</time>
      </trkpt>
      <trkpt lat="42.79887" lon="18.07689">
        <ele>302.695664</ele>
        <time>2022-06-10T11:22:46.747Z</time>
      </trkpt>
      <trkpt lat="42.8007" lon="18.07495">
        <ele>298.977352</ele>
        <time>2022-06-10T11:23:38.723Z</time>
      </trkpt>
      <trkpt lat="42.80296" lon="18.07373">
        <ele>299.519764</ele>
        <time>2022-06-10T11:24:36.705Z</time>
      </trkpt>
      <trkpt lat="42.80544" lon="18.07356">
        <ele>305.985243</ele>
        <time>2022-06-10T11:25:37.714Z</time>
      </trkpt>
      <trkpt lat="42.8078" lon="18.07329">
        <ele>305.196722</ele>
        <time>2022-06-10T11:26:37.711Z</time>
      </trkpt>
      <trkpt lat="42.81011" lon="18.07467">
        <ele>310.460808</ele>
        <time>2022-06-10T11:27:40.709Z</time>
      </trkpt>
      <trkpt lat="42.81249" lon="18.07492">
        <ele>308.346578</ele>
        <time>2022-06-10T11:28:40.719Z</time>
      </trkpt>
      <trkpt lat="42.8147" lon="18.07583">
        <ele>308.302241</ele>
        <time>2022-06-10T11:29:33.686Z</time>
      </trkpt>
      <trkpt lat="42.81703" lon="18.07577">
        <ele>299.906646</ele>
        <time>2022-06-10T11:30:33.679Z</time>
      </trkpt>
      <trkpt lat="42.81931" lon="18.07423">
        <ele>295.693507</ele>
        <time>2022-06-10T11:31:33.704Z</time>
      </trkpt>
      <trkpt lat="42.82123" lon="18.0725">
        <ele>298.75578</ele>
        <time>2022-06-10T11:32:36.717Z</time>
      </trkpt>
      <trkpt lat="42.8233" lon="18.07111">
        <ele>299.89953</ele>
        <time>2022-06-10T11:33:34.716Z</time>
      </trkpt>
      <trkpt lat="42.82551" lon="18.06991">
        <ele>297.214308</ele>
        <time>2022-06-10T11:34:37.757Z</time>
      </trkpt>
      <trkpt lat="42.82692" lon="18.06786">
        <ele>303.637974</ele>
        <time>2022-06-10T11:35:37.718Z</time>
      </trkpt>
      <trkpt lat="42.8277" lon="18.06467">
        <ele>306.091599</ele>
        <time>2022-06-10T11:36:40.702Z</time>
      </trkpt>
      <trkpt lat="42.82806" lon="18.06164">
        <ele>308.029646</ele>
        <time>2022-06-10T11:37:40.726Z</time>
      </trkpt>
      <trkpt lat="42.82827" lon="18.05877">
        <ele>309.558458</ele>
        <time>2022-06-10T11:38:40.710Z</time>
      </trkpt>
      <trkpt lat="42.82868" lon="18.05596">
        <ele>310.969726</ele>
        <time>2022-06-10T11:39:46.734Z</time>
      </trkpt>
      <trkpt lat="42.8279" lon="18.05357">
        <ele>314.110693</ele>
        <time>2022-06-10T11:40:49.733Z</time>
      </trkpt>
      <trkpt lat="42.82775" lon="18.05081">
        <ele>315.590333</ele>
        <time>2022-06-10T11:41:52.732Z</time>
      </trkpt>
      <trkpt lat="42.82841" lon="18.04806">
        <ele>314.954054</ele>
        <time>2022-06-10T11:42:53.714Z</time>
      </trkpt>
      <trkpt lat="42.8295" lon="18.04521">
        <ele>312.190403</ele>
        <time>2022-06-10T11:43:56.731Z</time>
      </trkpt>
      <trkpt lat="42.83073" lon="18.04257">
        <ele>308.609684</ele>
        <time>2022-06-10T11:44:55.734Z</time>
      </trkpt>
      <trkpt lat="42.83219" lon="18.03953">
        <ele>313.367703</ele>
        <time>2022-06-10T11:45:58.703Z</time>
      </trkpt>
      <trkpt lat="42.83379" lon="18.03714">
        <ele>312.57094</ele>
        <time>2022-06-10T11:46:57.747Z</time>
      </trkpt>
      <trkpt lat="42.83458" lon="18.03406">
        <ele>315.112837</ele>
        <time>2022-06-10T11:47:56.707Z</time>
      </trkpt>
      <trkpt lat="42.83551" lon="18.03086">
        <ele>313.073261</ele>
        <time>2022-06-10T11:48:59.708Z</time>
      </trkpt>
      <trkpt lat="42.83724" lon="18.02867">
        <ele>312.580926</ele>
        <time>2022-06-10T11:49:56.711Z</time>
      </trkpt>
      <trkpt lat="42.83917" lon="18.02712">
        <ele>316.564865</ele>
        <time>2022-06-10T11:50:50.722Z</time>
      </trkpt>
      <trkpt lat="42.84134" lon="18.02604">
        <ele>313.092105</ele>
        <time>2022-06-10T11:51:50.746Z</time>
      </trkpt>
      <trkpt lat="42.84313" lon="18.0244">
        <ele>307.598188</ele>
        <time>2022-06-10T11:52:38.699Z</time>
      </trkpt>
      <trkpt lat="42.84467" lon="18.02267">
        <ele>305.846985</ele>
        <time>2022-06-10T11:53:23.709Z</time>
      </trkpt>
      <trkpt lat="42.84669" lon="18.02091">
        <ele>307.649592</ele>
        <time>2022-06-10T11:54:20.724Z</time>
      </trkpt>
      <trkpt lat="42.84835" lon="18.01846">
        <ele>306.427043</ele>
        <time>2022-06-10T11:55:19.707Z</time>
      </trkpt>
      <trkpt lat="42.85001" lon="18.01595">
        <ele>308.967483</ele>
        <time>2022-06-10T11:56:18.719Z</time>
      </trkpt>
      <trkpt lat="42.85151" lon="18.01316">
        <ele>304.532555</ele>
        <time>2022-06-10T11:57:16.717Z</time>
      </trkpt>
      <trkpt lat="42.85268" lon="18.01054">
        <ele>306.441496</ele>
        <time>2022-06-10T11:58:10.709Z</time>
      </trkpt>
      <trkpt lat="42.85342" lon="18.00745">
        <ele>308.61491</ele>
        <time>2022-06-10T11:59:13.712Z</time>
      </trkpt>
      <trkpt lat="42.85281" lon="18.0042">
        <ele>309.094484</ele>
        <time>2022-06-10T12:00:13.755Z</time>
      </trkpt>
      <trkpt lat="42.85233" lon="18.00086">
        <ele>307.664175</ele>
        <time>2022-06-10T12:01:12.708Z</time>
      </trkpt>
      <trkpt lat="42.85096" lon="17.99829">
        <ele>308.659687</ele>
        <time>2022-06-10T12:02:12.727Z</time>
      </trkpt>
      <trkpt lat="42.84982" lon="17.99584">
        <ele>310.383932</ele>
        <time>2022-06-10T12:03:17.707Z</time>
      </trkpt>
      <trkpt lat="42.84846" lon="17.99338">
        <ele>311.308217</ele>
        <time>2022-06-10T12:04:17.724Z</time>
      </trkpt>
      <trkpt lat="42.84752" lon="17.99066">
        <ele>309.924921</ele>
        <time>2022-06-10T12:05:14.717Z</time>
      </trkpt>
      <trkpt lat="42.8463" lon="17.98772">
        <ele>310.20166</ele>
        <time>2022-06-10T12:06:13.705Z</time>
      </trkpt>
      <trkpt lat="42.84608" lon="17.98428">
        <ele>308.948027</ele>
        <time>2022-06-10T12:07:12.687Z</time>
      </trkpt>
      <trkpt lat="42.84674" lon="17.98125">
        <ele>310.525567</ele>
        <time>2022-06-10T12:08:05.693Z</time>
      </trkpt>
      <trkpt lat="42.84727" lon="17.97996">
        <ele>310.588221</ele>
        <time>2022-06-10T12:09:36.983Z</time>
      </trkpt>
    </trkseg>
  </trk>
</gpx>